Time;durP1;ratioP1;P1;durP2;ratioP2;P2;SDS_P1;SDS_P2;PMS_P1;PMS_P2;Temp;Humidity;BMP_temperature;BMP_pressure;BME280_temperature;BME280_humidity;BME280_pressure;Samples;Min_cycle;Max_cycle;Signal;HPM_P1;HPM_P2
2023/04/02 00:02:12;;;;;;;;;;;;;;;;;;5040279;28;19909;-44
2023/04/02 00:04:39;;;;;;;;;;;;;;;;;;5043662;28;19912;-43
2023/04/02 00:07:05;;;;;;;;;;;;;;;;;;5036892;28;20019;-46
2023/04/02 00:09:32;;;;;;;;;;;;;;;;;;5031928;28;19996;-46
2023/04/02 00:11:59;;;;;;;;;;;;;;;;;;5046953;28;19909;-46
2023/04/02 00:14:25;;;;;;;;;;;;;;;;;;5053184;28;20007;-45
2023/04/02 00:16:52;;;;;;;;;;;;;;;;;;5055973;28;20313;-47
2023/04/02 00:19:18;;;;;;;;;;;;;;;;;;5057576;28;19966;-47
2023/04/02 00:21:45;;;;;;;;;;;;;;;;;;5051461;28;19919;-47
2023/04/02 00:24:11;;;;;;;;;;;;;;;;;;5062384;28;19908;-48
2023/04/02 00:26:39;;;;;;;;;;;;;;;;;;5060127;28;19921;-47
2023/04/02 00:29:06;;;;;;;;;;;;;;;;;;5067614;28;19918;-46
2023/04/02 00:31:32;;;;;;;;;;;;;;;;;;5056305;28;19959;-49
2023/04/02 00:33:58;;;;;;;;;;;;;;;;;;5052090;28;20263;-45
2023/04/02 00:36:25;;;;;;;;;;;;;;;;;;5060331;28;20428;-48
2023/04/02 00:38:51;;;;;;;;;;;;;;;;;;5051408;28;20377;-47
2023/04/02 00:41:18;;;;;;;;;;;;;;;;;;5054540;28;19912;-47
2023/04/02 00:43:45;;;;;;;;;;;;;;;;;;5051411;28;19927;-48
2023/04/02 00:46:12;;;;;;;;;;;;;;;;;;5050632;28;19925;-46
2023/04/02 00:48:39;;;;;;;;;;;;;;;;;;5053465;28;19931;-46
2023/04/02 00:51:05;;;;;;;;;;;;;;;;;;5050914;28;20449;-46
2023/04/02 00:53:32;;;;;;;;;;;;;;;;;;5059151;28;20003;-47
2023/04/02 00:55:58;;;;;;;;;;;;;;;;;;5051260;28;19912;-46
2023/04/02 00:58:25;;;;;;;;;;;;;;;;;;5058352;28;19913;-47
2023/04/02 01:00:51;;;;;;;;;;;;;;;;;;5051102;28;19915;-47
2023/04/02 01:03:27;;;;;;;;;;;;;;;;;;5050937;28;19951;-47
2023/04/02 01:05:54;;;;;;;;;;;;;;;;;;5050723;28;19940;-46
2023/04/02 01:08:20;;;;;;;;;;;;;;;;;;5051202;28;19912;-46
2023/04/02 01:10:46;;;;;;;;;;;;;;;;;;5051284;28;20686;-46
2023/04/02 01:13:13;;;;;;;;;;;;;;;;;;5051170;28;19986;-46
2023/04/02 01:15:39;;;;;;;;;;;;;;;;;;5051292;28;19908;-46
2023/04/02 01:18:06;;;;;;;;;;;;;;;;;;5051120;28;19912;-46
2023/04/02 01:20:32;;;;;;;;;;;;;;;;;;5051175;28;19912;-46
2023/04/02 01:22:58;;;;;;;;;;;;;;;;;;5052998;28;19920;-48
2023/04/02 01:25:25;;;;;;;;;;;;;;;;;;5055108;28;19917;-46
2023/04/02 01:27:51;;;;;;;;;;;;;;;;;;5069505;28;20062;-46
2023/04/02 01:30:18;;;;;;;;;;;;;;;;;;5075230;28;19954;-46
2023/04/02 01:32:44;;;;;;;;;;;;;;;;;;5058004;28;19913;-49
2023/04/02 01:35:11;;;;;;;;;;;;;;;;;;5054418;28;19934;-52
2023/04/02 01:37:37;;;;;;;;;;;;;;;;;;5055974;28;19909;-49
2023/04/02 01:40:04;;;;;;;;;;;;;;;;;;5054165;28;19944;-50
2023/04/02 01:42:31;;;;;;;;;;;;;;;;;;5055518;28;19909;-48
2023/04/02 01:44:57;;;;;;;;;;;;;;;;;;5055763;28;20325;-49
2023/04/02 01:47:26;;;;;;;;;;;;;;;;;;5055698;28;20397;-46
2023/04/02 01:49:52;;;;;;;;;;;;;;;;;;5055585;28;19959;-49
2023/04/02 01:52:19;;;;;;;;;;;;;;;;;;5055487;28;19912;-47
2023/04/02 01:54:46;;;;;;;;;;;;;;;;;;5055514;28;19913;-48
2023/04/02 01:57:13;;;;;;;;;;;;;;;;;;5055422;28;19909;-45
2023/04/02 01:59:39;;;;;;;;;;;;;;;;;;5055504;28;19908;-47
2023/04/02 02:02:05;;;;;;;;;;;;;;;;;;5055439;28;20255;-47
2023/04/02 02:04:32;;;;;;;;;;;;;;;;;;5055468;28;20446;-49
2023/04/02 02:07:00;;;;;;;;;;;;;;;;;;5055334;28;20386;-46
2023/04/02 02:09:27;;;;;;;;;;;;;;;;;;5055514;28;19917;-47
2023/04/02 02:11:53;;;;;;;;;;;;;;;;;;5055261;28;20290;-46
2023/04/02 02:14:20;;;;;;;;;;;;;;;;;;5055290;28;19913;-45
2023/04/02 02:16:46;;;;;;;;;;;;;;;;;;5055225;28;19936;-45
2023/04/02 02:19:13;;;;;;;;;;;;;;;;;;5055196;28;20109;-46
2023/04/02 02:21:39;;;;;;;;;;;;;;;;;;5053682;28;20026;-46
2023/04/02 02:24:06;;;;;;;;;;;;;;;;;;5055148;28;19915;-46
2023/04/02 02:26:32;;;;;;;;;;;;;;;;;;5054884;28;19927;-48
2023/04/02 02:28:59;;;;;;;;;;;;;;;;;;5054902;28;20373;-47
2023/04/02 02:31:26;;;;;;;;;;;;;;;;;;5054773;28;19912;-46
2023/04/02 02:33:53;;;;;;;;;;;;;;;;;;5054239;28;19912;-47
2023/04/02 02:36:19;;;;;;;;;;;;;;;;;;5054815;28;19913;-47
2023/04/02 02:38:45;;;;;;;;;;;;;;;;;;5054867;28;19948;-49
2023/04/02 02:41:12;;;;;;;;;;;;;;;;;;5054679;28;19912;-49
2023/04/02 02:43:38;;;;;;;;;;;;;;;;;;5054665;28;19939;-46
2023/04/02 02:46:05;;;;;;;;;;;;;;;;;;5054563;28;19959;-47
2023/04/02 02:48:31;;;;;;;;;;;;;;;;;;5054613;28;19948;-46
2023/04/02 02:50:57;;;;;;;;;;;;;;;;;;5054625;28;20392;-46
2023/04/02 02:53:24;;;;;;;;;;;;;;;;;;5054494;28;19908;-46
2023/04/02 02:55:50;;;;;;;;;;;;;;;;;;5054454;28;19912;-46
2023/04/02 02:58:17;;;;;;;;;;;;;;;;;;5054542;28;19996;-47
2023/04/02 03:00:44;;;;;;;;;;;;;;;;;;5054252;28;19955;-46
2023/04/02 03:03:11;;;;;;;;;;;;;;;;;;5054468;28;19999;-49
2023/04/02 03:05:37;;;;;;;;;;;;;;;;;;5054281;28;19921;-49
2023/04/02 03:08:03;;;;;;;;;;;;;;;;;;5054227;28;20382;-47
2023/04/02 03:10:30;;;;;;;;;;;;;;;;;;5054174;28;19909;-47
2023/04/02 03:12:56;;;;;;;;;;;;;;;;;;5054076;28;19912;-46
2023/04/02 03:15:22;;;;;;;;;;;;;;;;;;5054315;28;19960;-47
2023/04/02 03:17:49;;;;;;;;;;;;;;;;;;5054062;28;20637;-47
2023/04/02 03:20:15;;;;;;;;;;;;;;;;;;5038457;28;19946;-47
2023/04/02 03:22:42;;;;;;;;;;;;;;;;;;5053276;28;19975;-48
2023/04/02 03:25:08;;;;;;;;;;;;;;;;;;5053252;28;19920;-48
2023/04/02 03:27:35;;;;;;;;;;;;;;;;;;5060955;28;19928;-47
2023/04/02 03:30:01;;;;;;;;;;;;;;;;;;5056075;28;19917;-48
2023/04/02 03:32:28;;;;;;;;;;;;;;;;;;5053326;28;19915;-49
2023/04/02 03:34:54;;;;;;;;;;;;;;;;;;5051688;28;19913;-46
2023/04/02 03:37:21;;;;;;;;;;;;;;;;;;5055530;28;19912;-49
2023/04/02 03:39:47;;;;;;;;;;;;;;;;;;5050556;28;19955;-47
2023/04/02 03:42:13;;;;;;;;;;;;;;;;;;5045371;28;19909;-47
2023/04/02 03:44:40;;;;;;;;;;;;;;;;;;5047107;28;19913;-47
2023/04/02 03:47:06;;;;;;;;;;;;;;;;;;5073155;28;19983;-48
2023/04/02 03:49:33;;;;;;;;;;;;;;;;;;5058174;28;19962;-47
2023/04/02 03:51:59;;;;;;;;;;;;;;;;;;5053113;28;19916;-47
2023/04/02 03:54:25;;;;;;;;;;;;;;;;;;5051528;28;20278;-48
2023/04/02 03:56:52;;;;;;;;;;;;;;;;;;5073097;28;19970;-46
2023/04/02 03:59:18;;;;;;;;;;;;;;;;;;5073086;28;20391;-52
2023/04/02 04:01:45;;;;;;;;;;;;;;;;;;5072939;28;19908;-47
2023/04/02 04:04:11;;;;;;;;;;;;;;;;;;5063752;28;19934;-48
2023/04/02 04:06:38;;;;;;;;;;;;;;;;;;5052747;28;19917;-46
2023/04/02 04:09:04;;;;;;;;;;;;;;;;;;5053046;28;19920;-47
2023/04/02 04:11:30;;;;;;;;;;;;;;;;;;5052748;28;19950;-50
2023/04/02 04:13:57;;;;;;;;;;;;;;;;;;5051621;28;19962;-46
2023/04/02 04:16:23;;;;;;;;;;;;;;;;;;5052691;28;19909;-46
2023/04/02 04:18:50;;;;;;;;;;;;;;;;;;5056925;28;20482;-49
2023/04/02 04:21:17;;;;;;;;;;;;;;;;;;5063836;28;19913;-46
2023/04/02 04:23:49;;;;;;;;;;;;;;;;;;5072706;28;19919;-49
2023/04/02 04:26:18;;;;;;;;;;;;;;;;;;5071976;28;20014;-49
2023/04/02 04:28:45;;;;;;;;;;;;;;;;;;5072513;28;19908;-46
2023/04/02 04:31:11;;;;;;;;;;;;;;;;;;5063274;28;19919;-46
2023/04/02 04:33:38;;;;;;;;;;;;;;;;;;5063841;28;20258;-49
2023/04/02 04:36:05;;;;;;;;;;;;;;;;;;5066891;28;19994;-47
2023/04/02 04:38:31;;;;;;;;;;;;;;;;;;5071145;28;20381;-49
2023/04/02 04:40:58;;;;;;;;;;;;;;;;;;5072395;28;20374;-46
2023/04/02 04:43:24;;;;;;;;;;;;;;;;;;5072491;28;19908;-46
2023/04/02 04:45:50;;;;;;;;;;;;;;;;;;5065395;28;19919;-46
2023/04/02 04:48:17;;;;;;;;;;;;;;;;;;5063162;28;19920;-46
2023/04/02 04:50:43;;;;;;;;;;;;;;;;;;5052349;28;19912;-47
2023/04/02 04:53:10;;;;;;;;;;;;;;;;;;5052274;28;20366;-47
2023/04/02 04:55:36;;;;;;;;;;;;;;;;;;5052401;28;20690;-48
2023/04/02 04:58:02;;;;;;;;;;;;;;;;;;5052409;28;19995;-46
2023/04/02 05:00:29;;;;;;;;;;;;;;;;;;5052258;28;19955;-48
2023/04/02 05:02:55;;;;;;;;;;;;;;;;;;5052188;28;20423;-46
2023/04/02 05:05:22;;;;;;;;;;;;;;;;;;5052165;28;19958;-46
2023/04/02 05:07:48;;;;;;;;;;;;;;;;;;5052048;28;20368;-47
2023/04/02 05:10:15;;;;;;;;;;;;;;;;;;5052135;28;19954;-49
2023/04/02 05:12:41;;;;;;;;;;;;;;;;;;5052181;28;20389;-46
2023/04/02 05:15:07;;;;;;;;;;;;;;;;;;5052093;28;19913;-46
2023/04/02 05:17:34;;;;;;;;;;;;;;;;;;5052113;28;19966;-46
2023/04/02 05:20:01;;;;;;;;;;;;;;;;;;5052074;28;19908;-46
2023/04/02 05:22:28;;;;;;;;;;;;;;;;;;5051950;28;20019;-47
2023/04/02 05:24:54;;;;;;;;;;;;;;;;;;5051841;28;19921;-51
2023/04/02 05:27:20;;;;;;;;;;;;;;;;;;5051868;28;20362;-47
2023/04/02 05:29:47;;;;;;;;;;;;;;;;;;5051993;28;19920;-49
2023/04/02 05:32:13;;;;;;;;;;;;;;;;;;5051846;28;19951;-49
2023/04/02 05:34:40;;;;;;;;;;;;;;;;;;5051868;28;19920;-48
2023/04/02 05:37:08;;;;;;;;;;;;;;;;;;5051913;28;19909;-47
2023/04/02 05:39:34;;;;;;;;;;;;;;;;;;5051743;28;19908;-52
2023/04/02 05:42:00;;;;;;;;;;;;;;;;;;5051653;28;20011;-50
2023/04/02 05:44:27;;;;;;;;;;;;;;;;;;5051753;28;19923;-46
2023/04/02 05:46:53;;;;;;;;;;;;;;;;;;5051871;28;19944;-49
2023/04/02 05:49:19;;;;;;;;;;;;;;;;;;5051582;28;20400;-47
2023/04/02 05:51:46;;;;;;;;;;;;;;;;;;5051701;28;19915;-48
2023/04/02 05:54:12;;;;;;;;;;;;;;;;;;5051701;28;20717;-48
2023/04/02 05:56:39;;;;;;;;;;;;;;;;;;5051696;28;19908;-49
2023/04/02 05:59:07;;;;;;;;;;;;;;;;;;5051730;28;19916;-47
2023/04/02 06:01:33;;;;;;;;;;;;;;;;;;5048770;28;19909;-46
2023/04/02 06:04:00;;;;;;;;;;;;;;;;;;5051477;28;20373;-46
2023/04/02 06:06:26;;;;;;;;;;;;;;;;;;5033541;28;20366;-46
2023/04/02 06:08:52;;;;;;;;;;;;;;;;;;5053139;28;19995;-48
2023/04/02 06:11:19;;;;;;;;;;;;;;;;;;5055225;28;19912;-46
2023/04/02 06:13:45;;;;;;;;;;;;;;;;;;5055306;28;19961;-47
2023/04/02 06:16:12;;;;;;;;;;;;;;;;;;5055242;28;19921;-47
2023/04/02 06:18:38;;;;;;;;;;;;;;;;;;5055053;28;20366;-51
2023/04/02 06:21:05;;;;;;;;;;;;;;;;;;5055002;28;19997;-49
2023/04/02 06:23:31;;;;;;;;;;;;;;;;;;5054919;28;19915;-46
2023/04/02 06:25:57;;;;;;;;;;;;;;;;;;5054802;28;19920;-49
2023/04/02 06:28:24;;;;;;;;;;;;;;;;;;5055038;28;19970;-48
2023/04/02 06:30:50;;;;;;;;;;;;;;;;;;5065115;28;19912;-47
2023/04/02 06:33:17;;;;;;;;;;;;;;;;;;5074859;28;19935;-48
2023/04/02 06:35:45;;;;;;;;;;;;;;;;;;5059870;28;19962;-46
2023/04/02 06:38:12;;;;;;;;;;;;;;;;;;5054703;28;19917;-48
2023/04/02 06:40:38;;;;;;;;;;;;;;;;;;5063134;28;19931;-51
2023/04/02 06:43:05;;;;;;;;;;;;;;;;;;5074477;28;19963;-49
2023/04/02 06:45:31;;;;;;;;;;;;;;;;;;5070090;28;20356;-48
2023/04/02 06:47:57;;;;;;;;;;;;;;;;;;5074255;28;20373;-48
2023/04/02 06:50:25;;;;;;;;;;;;;;;;;;5074517;28;19912;-48
2023/04/02 06:52:51;;;;;;;;;;;;;;;;;;5074287;28;19915;-49
2023/04/02 06:55:18;;;;;;;;;;;;;;;;;;5074504;28;20062;-46
2023/04/02 06:57:44;;;;;;;;;;;;;;;;;;5074398;28;19908;-47
2023/04/02 07:00:11;;;;;;;;;;;;;;;;;;5074386;28;19912;-48
2023/04/02 07:02:37;;;;;;;;;;;;;;;;;;5074110;28;20289;-50
2023/04/02 07:05:04;;;;;;;;;;;;;;;;;;5074218;28;19915;-46
2023/04/02 07:07:30;;;;;;;;;;;;;;;;;;5074216;28;19912;-50
2023/04/02 07:09:57;;;;;;;;;;;;;;;;;;5074157;28;19928;-50
2023/04/02 07:12:23;;;;;;;;;;;;;;;;;;5074008;28;20348;-49
2023/04/02 07:14:50;;;;;;;;;;;;;;;;;;5056139;28;19909;-47
2023/04/02 07:17:16;;;;;;;;;;;;;;;;;;5074061;28;19913;-46
2023/04/02 07:19:44;;;;;;;;;;;;;;;;;;5074005;28;19914;-49
2023/04/02 07:22:10;;;;;;;;;;;;;;;;;;5073763;28;19962;-51
2023/04/02 07:24:37;;;;;;;;;;;;;;;;;;5073605;28;20266;-51
2023/04/02 07:27:03;;;;;;;;;;;;;;;;;;5037837;28;20428;-47
2023/04/02 07:29:30;;;;;;;;;;;;;;;;;;5053669;28;19917;-49
2023/04/02 07:31:56;;;;;;;;;;;;;;;;;;5053643;28;19912;-47
2023/04/02 07:34:22;;;;;;;;;;;;;;;;;;5053617;28;19912;-50
2023/04/02 07:36:49;;;;;;;;;;;;;;;;;;5053576;28;19952;-47
2023/04/02 07:39:15;;;;;;;;;;;;;;;;;;5053540;28;19908;-50
2023/04/02 07:41:42;;;;;;;;;;;;;;;;;;5053322;28;19920;-49
2023/04/02 07:44:08;;;;;;;;;;;;;;;;;;5053491;28;20382;-47
2023/04/02 07:46:35;;;;;;;;;;;;;;;;;;5053425;28;19919;-50
2023/04/02 07:49:01;;;;;;;;;;;;;;;;;;5053411;28;19917;-52
2023/04/02 07:51:27;;;;;;;;;;;;;;;;;;5053267;28;19920;-48
2023/04/02 07:53:54;;;;;;;;;;;;;;;;;;5053561;28;20445;-48
2023/04/02 07:56:21;;;;;;;;;;;;;;;;;;5053500;28;20274;-50
2023/04/02 07:58:47;;;;;;;;;;;;;;;;;;5053187;28;20597;-46
2023/04/02 08:01:13;;;;;;;;;;;;;;;;;;5053004;28;19995;-47
2023/04/02 08:03:40;;;;;;;;;;;;;;;;;;5053200;28;19915;-47
2023/04/02 08:06:06;;;;;;;;;;;;;;;;;;5053087;28;19912;-47
2023/04/02 08:08:33;;;;;;;;;;;;;;;;;;5053137;28;19951;-49
2023/04/02 08:10:59;;;;;;;;;;;;;;;;;;5052914;28;19913;-46
2023/04/02 08:13:26;;;;;;;;;;;;;;;;;;5052984;28;19909;-49
2023/04/02 08:15:52;;;;;;;;;;;;;;;;;;5052832;28;20275;-51
2023/04/02 08:18:18;;;;;;;;;;;;;;;;;;5052867;28;20431;-53
2023/04/02 08:20:45;;;;;;;;;;;;;;;;;;5052672;28;19905;-51
2023/04/02 08:23:12;;;;;;;;;;;;;;;;;;5052684;28;19945;-48
2023/04/02 08:25:38;;;;;;;;;;;;;;;;;;5052495;28;19975;-49
2023/04/02 08:28:05;;;;;;;;;;;;;;;;;;5052552;28;19909;-51
2023/04/02 08:30:31;;;;;;;;;;;;;;;;;;5052534;28;19952;-47
2023/04/02 08:32:58;;;;;;;;;;;;;;;;;;5052270;28;20362;-51
2023/04/02 08:35:25;;;;;;;;;;;;;;;;;;5052575;28;19993;-46
2023/04/02 08:37:51;;;;;;;;;;;;;;;;;;5052343;28;20477;-46
2023/04/02 08:40:18;;;;;;;;;;;;;;;;;;5052403;28;19905;-46
2023/04/02 08:42:44;;;;;;;;;;;;;;;;;;5052276;28;19909;-46
2023/04/02 08:45:11;;;;;;;;;;;;;;;;;;5052395;28;20066;-46
2023/04/02 08:47:39;;;;;;;;;;;;;;;;;;5052141;28;19923;-46
2023/04/02 08:50:05;;;;;;;;;;;;;;;;;;5052138;28;19920;-46
2023/04/02 08:52:31;;;;;;;;;;;;;;;;;;5052055;28;19905;-46
2023/04/02 08:54:59;;;;;;;;;;;;;;;;;;5052195;28;20281;-46
2023/04/02 08:57:25;;;;;;;;;;;;;;;;;;5052397;28;20051;-48
2023/04/02 08:59:52;;;;;;;;;;;;;;;;;;5052355;28;20286;-45
2023/04/02 09:02:18;;;;;;;;;;;;;;;;;;5051983;28;19905;-46
2023/04/02 09:04:44;;;;;;;;;;;;;;;;;;5052048;28;19935;-48
2023/04/02 09:07:11;;;;;;;;;;;;;;;;;;5051915;28;19908;-46
2023/04/02 09:09:37;;;;;;;;;;;;;;;;;;5051991;28;19912;-47
2023/04/02 09:12:03;;;;;;;;;;;;;;;;;;5051869;28;19916;-46
2023/04/02 09:14:30;;;;;;;;;;;;;;;;;;5052006;28;19909;-48
2023/04/02 09:16:56;;;;;;;;;;;;;;;;;;5051909;28;20000;-46
2023/04/02 09:19:22;;;;;;;;;;;;;;;;;;5052021;28;19916;-46
2023/04/02 09:21:50;;;;;;;;;;;;;;;;;;5051605;28;19909;-46
2023/04/02 09:24:16;;;;;;;;;;;;;;;;;;5051789;28;19912;-48
2023/04/02 09:26:43;;;;;;;;;;;;;;;;;;5051613;28;19917;-46
2023/04/02 09:29:09;;;;;;;;;;;;;;;;;;5051822;28;19953;-46
2023/04/02 09:31:36;;;;;;;;;;;;;;;;;;5051814;28;20002;-46
2023/04/02 09:34:02;;;;;;;;;;;;;;;;;;5051845;28;19935;-46
2023/04/02 09:36:29;;;;;;;;;;;;;;;;;;5051764;28;20003;-46
2023/04/02 09:38:55;;;;;;;;;;;;;;;;;;5051853;28;19908;-47
2023/04/02 09:41:22;;;;;;;;;;;;;;;;;;5051599;28;19905;-46
2023/04/02 09:43:48;;;;;;;;;;;;;;;;;;5053288;28;19952;-46
2023/04/02 09:46:15;;;;;;;;;;;;;;;;;;5055683;28;19904;-46
2023/04/02 09:48:42;;;;;;;;;;;;;;;;;;5055570;28;19917;-47
2023/04/02 09:51:09;;;;;;;;;;;;;;;;;;5055368;28;19908;-46
2023/04/02 09:53:35;;;;;;;;;;;;;;;;;;5055326;28;19955;-50
2023/04/02 09:56:02;;;;;;;;;;;;;;;;;;5055218;28;19909;-46
2023/04/02 09:58:28;;;;;;;;;;;;;;;;;;5055303;28;19955;-46
2023/04/02 10:00:55;;;;;;;;;;;;;;;;;;5055112;28;20385;-46
2023/04/02 10:03:21;;;;;;;;;;;;;;;;;;5055075;28;20438;-46
2023/04/02 10:05:47;;;;;;;;;;;;;;;;;;5055286;28;20361;-46
2023/04/02 10:08:14;;;;;;;;;;;;;;;;;;5055124;28;19912;-47
2023/04/02 10:10:40;;;;;;;;;;;;;;;;;;5055048;28;19951;-46
2023/04/02 10:13:07;;;;;;;;;;;;;;;;;;5055198;28;19948;-47
2023/04/02 10:15:33;;;;;;;;;;;;;;;;;;5053656;28;19931;-46
2023/04/02 10:18:00;;;;;;;;;;;;;;;;;;5055064;28;19901;-46
2023/04/02 10:20:26;;;;;;;;;;;;;;;;;;5054913;28;20389;-47
2023/04/02 10:22:52;;;;;;;;;;;;;;;;;;5054963;28;19952;-48
2023/04/02 10:25:19;;;;;;;;;;;;;;;;;;5054681;28;20282;-48
2023/04/02 10:27:45;;;;;;;;;;;;;;;;;;5054919;28;20003;-47
2023/04/02 10:30:12;;;;;;;;;;;;;;;;;;5054965;28;19908;-46
2023/04/02 10:32:38;;;;;;;;;;;;;;;;;;5054736;28;19909;-46
2023/04/02 10:35:04;;;;;;;;;;;;;;;;;;5054787;28;19912;-46
2023/04/02 10:37:31;;;;;;;;;;;;;;;;;;5054757;28;20510;-46
2023/04/02 10:39:57;;;;;;;;;;;;;;;;;;5054764;28;20000;-49
2023/04/02 10:42:24;;;;;;;;;;;;;;;;;;5054620;28;19904;-46
2023/04/02 10:44:50;;;;;;;;;;;;;;;;;;5054605;28;20384;-46
2023/04/02 10:47:16;;;;;;;;;;;;;;;;;;5068890;28;20386;-46
2023/04/02 10:49:43;;;;;;;;;;;;;;;;;;5074448;28;19909;-46
2023/04/02 10:52:12;;;;;;;;;;;;;;;;;;5064942;28;19908;-46
2023/04/02 10:54:38;;;;;;;;;;;;;;;;;;5054068;28;19954;-47
2023/04/02 10:57:05;;;;;;;;;;;;;;;;;;5068148;28;19909;-48
2023/04/02 10:59:31;;;;;;;;;;;;;;;;;;5074306;28;19939;-46
2023/04/02 11:01:58;;;;;;;;;;;;;;;;;;5074121;28;19953;-46
2023/04/02 11:04:24;;;;;;;;;;;;;;;;;;5074325;28;19908;-48
2023/04/02 11:06:51;;;;;;;;;;;;;;;;;;5074173;28;19922;-50
2023/04/02 11:09:17;;;;;;;;;;;;;;;;;;5073971;28;19923;-46
2023/04/02 11:11:44;;;;;;;;;;;;;;;;;;5073860;28;20289;-47
2023/04/02 11:14:10;;;;;;;;;;;;;;;;;;5061373;28;20286;-46
2023/04/02 11:16:37;;;;;;;;;;;;;;;;;;5054074;28;19909;-47
2023/04/02 11:19:03;;;;;;;;;;;;;;;;;;5070343;28;19905;-46
2023/04/02 11:21:29;;;;;;;;;;;;;;;;;;5073720;28;19904;-46
2023/04/02 11:23:56;;;;;;;;;;;;;;;;;;5073937;28;19908;-46
2023/04/02 11:26:22;;;;;;;;;;;;;;;;;;5073536;28;19916;-46
2023/04/02 11:28:49;;;;;;;;;;;;;;;;;;5055743;28;19912;-46
2023/04/02 11:31:15;;;;;;;;;;;;;;;;;;5073652;28;19991;-47
2023/04/02 11:33:42;;;;;;;;;;;;;;;;;;5073733;28;20472;-46
2023/04/02 11:36:08;;;;;;;;;;;;;;;;;;5073570;28;20506;-45
2023/04/02 11:38:35;;;;;;;;;;;;;;;;;;5073534;28;20007;-46
2023/04/02 11:41:01;;;;;;;;;;;;;;;;;;5073272;28;19908;-51
2023/04/02 11:43:27;;;;;;;;;;;;;;;;;;5073522;28;19916;-46
2023/04/02 11:45:54;;;;;;;;;;;;;;;;;;5073437;28;19912;-46
2023/04/02 11:48:20;;;;;;;;;;;;;;;;;;5073277;28;19958;-47
2023/04/02 11:50:47;;;;;;;;;;;;;;;;;;5073278;28;19912;-46
2023/04/02 11:53:16;;;;;;;;;;;;;;;;;;5061971;28;19915;-47
2023/04/02 11:55:42;;;;;;;;;;;;;;;;;;5053344;28;19944;-46
2023/04/02 11:58:08;;;;;;;;;;;;;;;;;;5053252;28;20320;-46
2023/04/02 12:00:35;;;;;;;;;;;;;;;;;;5069485;28;19963;-51
2023/04/02 12:03:03;;;;;;;;;;;;;;;;;;5066577;28;19970;-49
2023/04/02 12:05:30;;;;;;;;;;;;;;;;;;5069554;28;19944;-49
2023/04/02 12:07:57;;;;;;;;;;;;;;;;;;5052703;28;19924;-51
2023/04/02 12:10:23;;;;;;;;;;;;;;;;;;5052889;28;19909;-46
2023/04/02 12:12:50;;;;;;;;;;;;;;;;;;5066568;28;20409;-46
2023/04/02 12:15:16;;;;;;;;;;;;;;;;;;5072781;28;20324;-49
2023/04/02 12:17:43;;;;;;;;;;;;;;;;;;5071963;28;19911;-46
2023/04/02 12:20:12;;;;;;;;;;;;;;;;;;5065185;28;19928;-49
2023/04/02 12:22:38;;;;;;;;;;;;;;;;;;5054901;28;19944;-47
2023/04/02 12:25:05;;;;;;;;;;;;;;;;;;5054717;28;20325;-46
2023/04/02 12:27:31;;;;;;;;;;;;;;;;;;5054999;28;19916;-45
2023/04/02 12:29:58;;;;;;;;;;;;;;;;;;5055307;28;20393;-45
2023/04/02 12:32:24;;;;;;;;;;;;;;;;;;5056237;28;19908;-45
2023/04/02 12:34:51;;;;;;;;;;;;;;;;;;5053465;28;19904;-47
2023/04/02 12:37:17;;;;;;;;;;;;;;;;;;5050720;28;19939;-48
2023/04/02 12:39:44;;;;;;;;;;;;;;;;;;5062571;28;19912;-46
2023/04/02 12:42:11;;;;;;;;;;;;;;;;;;5072189;28;19910;-46
2023/04/02 12:44:37;;;;;;;;;;;;;;;;;;5072226;28;20053;-47
2023/04/02 12:47:04;;;;;;;;;;;;;;;;;;5064132;28;19991;-46
2023/04/02 12:49:30;;;;;;;;;;;;;;;;;;5072125;28;19908;-45
2023/04/02 12:51:57;;;;;;;;;;;;;;;;;;5072113;28;19954;-46
2023/04/02 12:54:24;;;;;;;;;;;;;;;;;;5072186;28;19908;-45
2023/04/02 12:56:50;;;;;;;;;;;;;;;;;;5058533;28;19916;-46
2023/04/02 12:59:17;;;;;;;;;;;;;;;;;;5051905;28;19905;-45
2023/04/02 13:01:43;;;;;;;;;;;;;;;;;;5051897;28;20366;-46
2023/04/02 13:04:13;;;;;;;;;;;;;;;;;;5052084;28;19927;-46
2023/04/02 13:06:40;;;;;;;;;;;;;;;;;;5044067;28;19923;-46
2023/04/02 13:09:06;;;;;;;;;;;;;;;;;;5048600;28;19904;-46
2023/04/02 13:11:33;;;;;;;;;;;;;;;;;;5051676;28;19995;-47
2023/04/02 13:14:00;;;;;;;;;;;;;;;;;;5051973;28;19905;-46
2023/04/02 13:16:26;;;;;;;;;;;;;;;;;;5052043;28;19916;-46
2023/04/02 13:18:53;;;;;;;;;;;;;;;;;;5050811;28;20060;-47
2023/04/02 13:21:20;;;;;;;;;;;;;;;;;;5043827;28;19916;-47
2023/04/02 13:23:46;;;;;;;;;;;;;;;;;;5042190;28;19909;-47
2023/04/02 13:26:13;;;;;;;;;;;;;;;;;;5039989;28;19959;-46
2023/04/02 13:28:39;;;;;;;;;;;;;;;;;;5041520;28;21444;-47
2023/04/02 13:31:06;;;;;;;;;;;;;;;;;;5048900;28;20385;-47
2023/04/02 13:33:32;;;;;;;;;;;;;;;;;;5071068;28;19908;-48
2023/04/02 13:35:59;;;;;;;;;;;;;;;;;;5051321;28;19956;-48
2023/04/02 13:38:25;;;;;;;;;;;;;;;;;;5053345;28;20386;-46
2023/04/02 13:40:52;;;;;;;;;;;;;;;;;;5048612;28;19908;-47
2023/04/02 13:43:18;;;;;;;;;;;;;;;;;;5050053;28;19909;-47
2023/04/02 13:45:44;;;;;;;;;;;;;;;;;;5051615;28;20011;-49
2023/04/02 13:48:11;;;;;;;;;;;;;;;;;;5051121;28;19916;-51
2023/04/02 13:50:37;;;;;;;;;;;;;;;;;;5055189;28;19909;-46
2023/04/02 13:53:04;;;;;;;;;;;;;;;;;;5026188;28;20294;-46
2023/04/02 13:55:30;;;;;;;;;;;;;;;;;;5051899;28;20286;-47
2023/04/02 13:57:57;;;;;;;;;;;;;;;;;;5059642;28;19916;-50
2023/04/02 14:00:23;;;;;;;;;;;;;;;;;;5050698;28;19953;-49
2023/04/02 14:02:49;;;;;;;;;;;;;;;;;;5050066;28;19916;-48
2023/04/02 14:05:16;;;;;;;;;;;;;;;;;;5054638;28;19927;-47
2023/04/02 14:07:43;;;;;;;;;;;;;;;;;;5052082;28;20074;-46
2023/04/02 14:10:10;;;;;;;;;;;;;;;;;;5049305;28;19913;-51
2023/04/02 14:12:36;;;;;;;;;;;;;;;;;;5050961;28;19916;-46
2023/04/02 14:15:02;;;;;;;;;;;;;;;;;;5049870;28;19919;-46
2023/04/02 14:17:29;;;;;;;;;;;;;;;;;;5052685;28;19904;-46
2023/04/02 14:19:55;;;;;;;;;;;;;;;;;;5050284;28;19944;-50
2023/04/02 14:22:22;;;;;;;;;;;;;;;;;;5052596;28;19912;-46
2023/04/02 14:24:48;;;;;;;;;;;;;;;;;;5067117;28;19958;-47
2023/04/02 14:27:15;;;;;;;;;;;;;;;;;;5061970;28;20019;-46
2023/04/02 14:29:41;;;;;;;;;;;;;;;;;;5051413;28;19912;-46
2023/04/02 14:32:07;;;;;;;;;;;;;;;;;;5055314;28;19983;-47
2023/04/02 14:34:34;;;;;;;;;;;;;;;;;;5056910;28;20003;-46
2023/04/02 14:37:00;;;;;;;;;;;;;;;;;;5054434;28;19943;-49
2023/04/02 14:39:27;;;;;;;;;;;;;;;;;;5053421;28;20140;-46
2023/04/02 14:41:53;;;;;;;;;;;;;;;;;;5048692;28;20004;-46
2023/04/02 14:44:20;;;;;;;;;;;;;;;;;;5060530;28;20363;-46
2023/04/02 14:46:46;;;;;;;;;;;;;;;;;;5055699;28;19916;-47
2023/04/02 14:49:13;;;;;;;;;;;;;;;;;;5060009;28;20000;-49
2023/04/02 14:51:39;;;;;;;;;;;;;;;;;;5063803;28;20286;-46
2023/04/02 14:54:06;;;;;;;;;;;;;;;;;;5038968;28;19915;-48
2023/04/02 14:56:32;;;;;;;;;;;;;;;;;;5053826;28;19905;-46
2023/04/02 14:58:58;;;;;;;;;;;;;;;;;;5054009;28;19913;-46
2023/04/02 15:01:25;;;;;;;;;;;;;;;;;;5072026;28;20008;-48
2023/04/02 15:03:51;;;;;;;;;;;;;;;;;;5060494;28;19974;-48
2023/04/02 15:06:17;;;;;;;;;;;;;;;;;;5074018;28;20007;-46
2023/04/02 15:08:44;;;;;;;;;;;;;;;;;;5064271;28;20386;-51
2023/04/02 15:11:10;;;;;;;;;;;;;;;;;;5065053;28;19914;-47
2023/04/02 15:13:37;;;;;;;;;;;;;;;;;;5065488;28;20282;-47
2023/04/02 15:16:03;;;;;;;;;;;;;;;;;;5051940;22;19924;-46
2023/04/02 15:18:30;;;;;;;;;;;;;;;;;;5052738;28;19920;-45
2023/04/02 15:20:56;;;;;;;;;;;;;;;;;;5052903;28;20277;-45
2023/04/02 15:23:22;;;;;;;;;;;;;;;;;;5053396;28;19912;-45
2023/04/02 15:25:49;;;;;;;;;;;;;;;;;;5052056;28;19909;-46
2023/04/02 15:28:16;;;;;;;;;;;;;;;;;;5044309;28;19917;-45
2023/04/02 15:30:42;;;;;;;;;;;;;;;;;;5041254;28;20333;-45
2023/04/02 15:33:09;;;;;;;;;;;;;;;;;;5040391;28;19962;-46
2023/04/02 15:35:35;;;;;;;;;;;;;;;;;;5046929;28;19956;-45
2023/04/02 15:38:02;;;;;;;;;;;;;;;;;;5047782;28;20431;-45
2023/04/02 15:40:28;;;;;;;;;;;;;;;;;;5043795;28;19911;-46
2023/04/02 15:42:54;;;;;;;;;;;;;;;;;;5046082;28;19948;-45
2023/04/02 15:45:21;;;;;;;;;;;;;;;;;;5048357;28;19916;-46
2023/04/02 15:47:47;;;;;;;;;;;;;;;;;;5048000;28;20048;-45
2023/04/02 15:50:14;;;;;;;;;;;;;;;;;;5044268;28;19905;-47
2023/04/02 15:52:40;;;;;;;;;;;;;;;;;;5040033;28;19932;-46
2023/04/02 15:55:08;;;;;;;;;;;;;;;;;;5047559;28;19909;-45
2023/04/02 15:57:35;;;;;;;;;;;;;;;;;;5052628;28;19982;-45
2023/04/02 16:00:01;;;;;;;;;;;;;;;;;;5052390;28;20347;-45
2023/04/02 16:02:28;;;;;;;;;;;;;;;;;;5051786;28;20425;-47
2023/04/02 16:04:54;;;;;;;;;;;;;;;;;;5052325;28;19920;-45
2023/04/02 16:07:21;;;;;;;;;;;;;;;;;;5052401;28;19912;-45
2023/04/02 16:09:47;;;;;;;;;;;;;;;;;;5052478;28;19909;-45
2023/04/02 16:12:14;;;;;;;;;;;;;;;;;;5052417;28;19909;-47
2023/04/02 16:14:40;;;;;;;;;;;;;;;;;;5052621;28;19920;-45
2023/04/02 16:17:07;;;;;;;;;;;;;;;;;;5049855;28;19909;-46
2023/04/02 16:19:33;;;;;;;;;;;;;;;;;;5051380;28;19951;-46
2023/04/02 16:22:00;;;;;;;;;;;;;;;;;;5051447;28;19908;-46
2023/04/02 16:24:26;;;;;;;;;;;;;;;;;;5051215;28;20382;-45
2023/04/02 16:26:53;;;;;;;;;;;;;;;;;;5051849;28;20008;-45
2023/04/02 16:29:19;;;;;;;;;;;;;;;;;;5052722;28;19916;-45
2023/04/02 16:31:45;;;;;;;;;;;;;;;;;;5048470;28;19952;-46
2023/04/02 16:34:12;;;;;;;;;;;;;;;;;;5023777;28;19909;-46
2023/04/02 16:36:38;;;;;;;;;;;;;;;;;;5050373;28;20358;-46
2023/04/02 16:39:05;;;;;;;;;;;;;;;;;;5052049;28;19912;-43
2023/04/02 16:41:31;;;;;;;;;;;;;;;;;;5050963;28;19909;-46